Time;durP1;ratioP1;P1;durP2;ratioP2;P2;SDS_P1;SDS_P2;PMS_P1;PMS_P2;Temp;Humidity;BMP_temperature;BMP_pressure;BME280_temperature;BME280_humidity;BME280_pressure;Samples;Min_cycle;Max_cycle;Signal;HPM_P1;HPM_P2
2021/07/17 00:00:20;;;;;;;13.35;12.23;;;;;;;22.67;83.51;99044.47;1711129;84;21220;-65
2021/07/17 00:02:47;;;;;;;13.20;11.95;;;;;;;22.63;83.77;99047.90;1711160;84;20943;-65
2021/07/17 00:05:15;;;;;;;14.15;12.80;;;;;;;22.60;83.81;99049.52;1710962;84;20948;-65
2021/07/17 00:07:42;;;;;;;13.88;12.45;;;;;;;22.57;83.92;99051.66;1711258;83;21051;-65
2021/07/17 00:10:23;;;;;;;13.50;12.20;;;;;;;22.53;84.15;99057.75;1711002;83;20987;-66
2021/07/17 00:12:51;;;;;;;14.70;12.43;;;;;;;22.50;84.38;99057.20;1711204;83;21035;-66
2021/07/17 00:15:23;;;;;;;13.53;12.25;;;;;;;22.48;84.53;99057.36;1710980;83;21043;-66
2021/07/17 00:17:50;;;;;;;13.68;12.47;;;;;;;22.46;84.58;99063.78;1711327;83;21047;-66
2021/07/17 00:20:16;;;;;;;12.37;11.22;;;;;;;22.43;84.53;99063.59;1711042;83;20999;-66
2021/07/17 00:22:43;;;;;;;13.35;12.05;;;;;;;22.41;84.58;99066.03;1711187;83;20952;-66
2021/07/17 00:25:14;;;;;;;12.55;11.25;;;;;;;22.36;84.63;99061.20;1711065;84;21903;-66
2021/07/17 00:27:41;;;;;;;13.65;12.45;;;;;;;22.33;84.64;99064.98;1710876;84;21110;-66
2021/07/17 00:30:09;;;;;;;13.50;12.10;;;;;;;22.31;84.58;99063.45;1711449;83;20995;-66
2021/07/17 00:32:35;;;;;;;13.70;12.28;;;;;;;22.27;84.85;99066.88;1710982;83;21003;-66
2021/07/17 00:35:03;;;;;;;12.30;11.18;;;;;;;22.25;85.08;99066.69;1711131;83;20999;-66
2021/07/17 00:37:30;;;;;;;11.60;10.60;;;;;;;22.22;85.17;99073.59;1710964;82;20987;-66
2021/07/17 00:39:56;;;;;;;12.98;11.68;;;;;;;22.19;85.16;99064.61;1710988;83;20979;-66
2021/07/17 00:42:23;;;;;;;14.30;12.45;;;;;;;22.15;85.16;99077.34;1711258;83;21444;-66
2021/07/17 00:44:49;;;;;;;16.23;12.03;;;;;;;22.13;85.24;99072.68;1711089;83;21030;-66
2021/07/17 00:47:17;;;;;;;12.58;11.25;;;;;;;22.11;85.34;99072.48;1710964;83;21015;-66
2021/07/17 00:49:44;;;;;;;13.35;12.05;;;;;;;22.08;85.54;99071.44;1711104;84;21392;-66
2021/07/17 00:52:11;;;;;;;13.15;11.85;;;;;;;22.05;85.76;99063.30;1711024;83;21039;-66
2021/07/17 00:54:37;;;;;;;15.00;11.95;;;;;;;22.03;85.92;99064.42;1710983;84;20948;-66
2021/07/17 00:57:05;;;;;;;13.05;11.93;;;;;;;21.99;86.07;99067.81;1703151;84;21421;-66
2021/07/17 00:59:33;;;;;;;12.78;11.55;;;;;;;21.97;85.95;99062.69;1710933;84;21011;-66
2021/07/17 01:02:01;;;;;;;12.60;11.40;;;;;;;21.94;85.64;99061.65;1726888;83;21138;-66
2021/07/17 01:04:28;;;;;;;13.38;12.07;;;;;;;21.90;85.51;99062.91;1711030;84;21019;-66
2021/07/17 01:06:58;;;;;;;12.70;11.38;;;;;;;21.85;85.45;99057.70;1711037;84;20970;-66
2021/07/17 01:09:27;;;;;;;12.93;11.85;;;;;;;21.80;85.44;99060.77;1710984;84;20972;-66
2021/07/17 01:11:56;;;;;;;12.68;11.43;;;;;;;21.73;85.55;99059.70;1710954;83;20982;-66
2021/07/17 01:14:25;;;;;;;12.18;11.08;;;;;;;21.69;85.79;99064.93;1711226;83;21119;-66
2021/07/17 01:16:51;;;;;;;14.35;10.38;;;;;;;21.64;86.05;99064.03;1710907;83;20982;-66
2021/07/17 01:19:18;;;;;;;13.55;11.83;;;;;;;21.61;86.40;99059.51;1711184;84;20960;-66
2021/07/17 01:21:44;;;;;;;14.15;12.65;;;;;;;21.56;86.69;99061.28;1702796;84;21929;-66
2021/07/17 01:24:11;;;;;;;12.80;11.68;;;;;;;21.53;86.98;99056.77;1711031;84;20991;-66
2021/07/17 01:26:41;;;;;;;12.33;11.20;;;;;;;21.51;87.19;99057.39;1710996;84;21329;-66
2021/07/17 01:29:08;;;;;;;12.30;10.85;;;;;;;21.47;87.17;99066.09;1710882;83;21019;-66
2021/07/17 01:31:34;;;;;;;15.72;11.73;;;;;;;21.44;87.19;99057.11;1710929;83;20963;-66
2021/07/17 01:34:00;;;;;;;14.98;12.05;;;;;;;21.41;87.17;99057.88;1711085;83;21495;-66
2021/07/17 01:36:27;;;;;;;13.03;11.73;;;;;;;21.38;87.18;99057.70;1710982;83;20982;-66
2021/07/17 01:38:53;;;;;;;15.88;11.75;;;;;;;21.37;87.29;99052.55;1711026;83;21120;-66
2021/07/17 01:41:20;;;;;;;11.93;10.82;;;;;;;21.35;87.48;99051.86;1710837;83;20975;-65
2021/07/17 01:43:47;;;;;;;12.93;11.20;;;;;;;21.31;87.77;99052.13;1710942;84;20960;-65
2021/07/17 01:46:16;;;;;;;12.23;11.18;;;;;;;21.29;87.89;99050.11;1710926;83;21012;-65
2021/07/17 01:48:43;;;;;;;12.78;11.57;;;;;;;21.26;87.70;99047.75;1711019;83;21036;-65
2021/07/17 01:51:10;;;;;;;11.95;10.85;;;;;;;21.23;87.37;99052.48;1710678;83;21176;-65
2021/07/17 01:53:37;;;;;;;12.50;11.38;;;;;;;21.18;87.45;99045.45;1711065;84;21412;-65
2021/07/17 01:56:05;;;;;;;11.20;10.10;;;;;;;21.12;87.62;99043.36;1711298;83;20959;-65
2021/07/17 01:58:32;;;;;;;11.95;10.88;;;;;;;21.07;87.94;99038.48;1710924;83;21039;-65
2021/07/17 02:00:58;;;;;;;11.70;10.43;;;;;;;21.04;88.26;99042.72;1711036;83;21057;-65
2021/07/17 02:03:26;;;;;;;12.28;11.10;;;;;;;21.02;88.61;99041.19;1711125;83;21969;-65
2021/07/17 02:05:52;;;;;;;12.40;11.20;;;;;;;20.99;88.87;99042.30;1710886;83;20998;-65
2021/07/17 02:08:20;;;;;;;16.27;11.08;;;;;;;20.97;89.14;99041.63;1711006;83;21486;-65
2021/07/17 02:10:47;;;;;;;11.48;10.25;;;;;;;20.97;89.36;99043.79;1711050;83;21981;-65
2021/07/17 02:13:14;;;;;;;12.03;10.85;;;;;;;20.95;89.64;99037.80;1711016;83;20987;-65
2021/07/17 02:15:47;;;;;;;12.35;11.25;;;;;;;20.95;89.55;99042.25;1711156;84;21126;-65
2021/07/17 02:18:18;;;;;;;11.93;10.13;;;;;;;20.94;89.07;99046.70;1711161;84;20960;-65
2021/07/17 02:20:46;;;;;;;12.10;10.82;;;;;;;20.93;88.94;99047.68;1711452;83;21471;-65
2021/07/17 02:23:12;;;;;;;11.43;10.35;;;;;;;20.92;88.90;99041.20;1711349;82;21443;-65
2021/07/17 02:25:39;;;;;;;16.67;11.93;;;;;;;20.93;88.92;99041.56;1711099;83;21567;-65
2021/07/17 02:28:05;;;;;;;11.90;10.70;;;;;;;20.97;89.43;99038.98;1711021;83;21130;-66
2021/07/17 02:30:32;;;;;;;12.47;11.18;;;;;;;21.02;89.44;99044.67;1711107;83;21495;-66
2021/07/17 02:32:59;;;;;;;11.38;10.15;;;;;;;21.08;89.56;99039.31;1711183;84;21027;-65
2021/07/17 02:35:25;;;;;;;11.38;10.23;;;;;;;21.16;89.43;99042.11;1711024;83;21061;-65
2021/07/17 02:37:52;;;;;;;10.78;9.88;;;;;;;21.26;88.82;99045.10;1711169;83;21038;-65
2021/07/17 02:40:18;;;;;;;10.82;10.03;;;;;;;21.38;88.10;99037.03;1711028;84;21866;-66
2021/07/17 02:42:46;;;;;;;19.62;10.28;;;;;;;21.50;87.04;99033.23;1710972;84;20955;-65
2021/07/17 02:45:12;;;;;;;10.60;9.48;;;;;;;21.64;86.32;99031.44;1712876;82;21042;-65
2021/07/17 02:47:39;;;;;;;10.32;9.35;;;;;;;21.80;85.58;99034.79;1719188;83;21957;-65
2021/07/17 02:50:07;;;;;;;9.80;8.83;;;;;;;21.97;84.92;99038.85;1719149;82;21471;-66
2021/07/17 02:52:33;;;;;;;14.73;9.78;;;;;;;22.18;84.06;99031.19;1719262;82;21132;-65
2021/07/17 02:54:59;;;;;;;9.63;8.63;;;;;;;22.42;83.27;99035.42;1719656;82;21011;-65
2021/07/17 02:57:26;;;;;;;10.55;9.55;;;;;;;22.69;82.18;99038.52;1719310;82;20991;-66
2021/07/17 02:59:54;;;;;;;9.85;8.88;;;;;;;22.96;80.84;99037.66;1719316;82;21423;-66
2021/07/17 03:02:21;;;;;;;9.90;9.08;;;;;;;23.22;79.35;99039.84;1719311;82;21050;-66
2021/07/17 03:04:47;;;;;;;11.12;9.65;;;;;;;23.47;78.08;99031.56;1719198;82;21112;-66
2021/07/17 03:07:14;;;;;;;14.63;9.70;;;;;;;23.72;76.93;99032.59;1719142;83;20956;-66
2021/07/17 03:09:41;;;;;;;19.20;12.82;;;;;;;23.97;75.95;99028.23;1719200;83;20983;-66
2021/07/17 03:12:09;;;;;;;10.08;8.75;;;;;;;24.24;74.96;99026.70;1719044;83;47224;-66
2021/07/17 03:14:36;;;;;;;10.40;8.90;;;;;;;24.52;73.96;99027.28;1719316;83;20951;-66
2021/07/17 03:17:03;;;;;;;10.53;8.70;;;;;;;24.81;72.94;99017.50;1719246;83;21083;-66
2021/07/17 03:19:30;;;;;;;9.25;8.45;;;;;;;25.10;71.74;99022.38;1719341;83;21495;-66
2021/07/17 03:21:56;;;;;;;9.65;8.70;;;;;;;25.43;70.34;99025.00;1719196;83;21067;-66
2021/07/17 03:24:23;;;;;;;11.33;8.65;;;;;;;25.81;68.85;99032.77;1719275;83;20999;-66
2021/07/17 03:26:49;;;;;;;9.18;8.45;;;;;;;26.15;67.39;99029.33;1719397;82;21010;-66
2021/07/17 03:29:16;;;;;;;10.60;9.53;;;;;;;26.47;66.15;99031.02;1719137;83;21237;-66
2021/07/17 03:31:42;;;;;;;9.43;8.40;;;;;;;26.78;64.87;99035.52;1719330;83;21448;-66
2021/07/17 03:34:09;;;;;;;9.88;8.98;;;;;;;27.05;63.89;99029.14;1681548;83;21094;-66
2021/07/17 03:36:35;;;;;;;9.00;8.20;;;;;;;27.38;63.00;99029.67;1719320;82;20950;-66
2021/07/17 03:39:02;;;;;;;9.53;8.53;;;;;;;27.70;61.95;99030.41;1719300;83;21066;-66
2021/07/17 03:41:29;;;;;;;10.58;8.78;;;;;;;28.04;60.79;99036.02;1719282;83;21973;-66
2021/07/17 03:43:55;;;;;;;11.88;8.85;;;;;;;28.38;59.61;99038.11;1719114;82;20942;-66
2021/07/17 03:46:21;;;;;;;9.55;8.55;;;;;;;28.69;58.48;99037.02;1714355;82;20999;-66
2021/07/17 03:48:48;;;;;;;10.60;9.70;;;;;;;28.99;57.66;99035.06;1711162;83;21397;-66
2021/07/17 03:51:14;;;;;;;10.32;9.43;;;;;;;29.30;57.03;99032.89;1710945;83;20991;-66
2021/07/17 03:53:41;;;;;;;11.68;10.50;;;;;;;29.65;56.03;99036.97;1710978;84;21140;-66
2021/07/17 03:56:07;;;;;;;10.93;9.93;;;;;;;29.93;55.21;99033.75;1711021;84;20943;-66
2021/07/17 03:58:34;;;;;;;12.03;10.93;;;;;;;30.20;54.08;99041.42;1711053;82;20982;-67
2021/07/17 04:01:00;;;;;;;11.53;10.50;;;;;;;30.36;53.64;99043.79;1711032;83;21063;-67
2021/07/17 04:03:26;;;;;;;16.93;11.80;;;;;;;30.58;52.83;99038.28;1711438;83;20948;-67
2021/07/17 04:05:53;;;;;;;12.47;11.12;;;;;;;30.85;51.88;99038.67;1710989;82;21499;-67
2021/07/17 04:08:19;;;;;;;12.98;11.75;;;;;;;31.13;51.40;99042.05;1710897;84;20975;-67
2021/07/17 04:10:46;;;;;;;24.07;11.78;;;;;;;31.42;50.56;99035.41;1711284;83;21407;-66
2021/07/17 04:13:13;;;;;;;18.37;12.28;;;;;;;31.71;49.95;99038.73;1711162;83;21025;-66
2021/07/17 04:15:41;;;;;;;12.43;11.53;;;;;;;31.99;49.14;99040.61;1711087;83;20996;-66
2021/07/17 04:18:08;;;;;;;11.95;10.58;;;;;;;32.17;48.26;99043.98;1711052;83;22053;-66
2021/07/17 04:20:34;;;;;;;13.15;11.95;;;;;;;31.96;48.34;99055.85;1710901;84;21707;-66
2021/07/17 04:23:00;;;;;;;14.45;11.08;;;;;;;31.81;48.60;99052.55;1710959;84;20999;-67
2021/07/17 04:25:27;;;;;;;14.00;11.40;;;;;;;31.79;48.80;99051.41;1711307;83;20990;-67
2021/07/17 04:27:53;;;;;;;12.95;11.63;;;;;;;31.89;48.66;99051.00;1711090;84;21416;-67
2021/07/17 04:30:20;;;;;;;12.07;11.08;;;;;;;32.13;47.90;99048.97;1710944;84;21111;-66
2021/07/17 04:32:46;;;;;;;11.55;10.45;;;;;;;32.42;47.17;99060.25;1710856;84;20988;-66
2021/07/17 04:35:13;;;;;;;11.90;10.90;;;;;;;32.67;46.83;99052.27;1711093;84;21468;-66
2021/07/17 04:37:40;;;;;;;11.90;11.00;;;;;;;32.86;46.02;99054.04;1711004;83;21051;-65
2021/07/17 04:40:09;;;;;;;12.45;11.40;;;;;;;33.04;45.60;99058.16;1711333;83;20928;-65
2021/07/17 04:42:35;;;;;;;12.78;11.57;;;;;;;33.05;45.31;99054.95;1710933;83;21127;-65
2021/07/17 04:45:03;;;;;;;12.25;10.95;;;;;;;33.02;45.78;99054.86;1710994;82;20994;-67
2021/07/17 04:47:29;;;;;;;11.25;10.35;;;;;;;33.05;45.79;99051.73;1718658;82;21474;-65
2021/07/17 04:50:02;;;;;;;17.20;11.40;;;;;;;33.28;45.26;99053.05;1719093;82;21931;-67
2021/07/17 04:52:24;;;;;;;10.98;10.08;;;;;;;33.56;44.75;99052.61;1718818;83;20951;-66
2021/07/17 04:54:50;;;;;;;11.97;10.88;;;;;;;33.83;44.01;99048.09;1719484;82;21749;-66
2021/07/17 04:57:17;;;;;;;12.20;10.95;;;;;;;34.02;43.79;99039.47;1719070;83;21034;-66
2021/07/17 04:59:43;;;;;;;11.00;9.90;;;;;;;34.31;43.35;99046.02;1719472;82;20999;-66
2021/07/17 05:02:09;;;;;;;11.65;10.43;;;;;;;34.62;42.74;99043.62;1719182;82;20982;-67
2021/07/17 05:04:36;;;;;;;11.60;10.50;;;;;;;34.95;42.09;99036.95;1719627;82;20975;-66
2021/07/17 05:07:03;;;;;;;11.60;10.60;;;;;;;35.23;41.51;99037.94;1719194;83;21136;-66
2021/07/17 05:09:30;;;;;;;12.05;10.85;;;;;;;35.48;41.04;99036.93;1719031;83;21010;-66
2021/07/17 05:11:57;;;;;;;12.00;10.88;;;;;;;35.75;40.62;99034.05;1719160;83;20947;-66
2021/07/17 05:14:23;;;;;;;11.93;10.82;;;;;;;36.01;40.04;99038.67;1719451;82;20979;-66
2021/07/17 05:16:50;;;;;;;12.35;11.20;;;;;;;36.21;39.47;99037.73;1719169;83;21003;-66
2021/07/17 05:19:18;;;;;;;11.33;10.20;;;;;;;36.29;39.17;99043.34;1719315;82;21089;-66
2021/07/17 05:21:44;;;;;;;11.88;9.53;;;;;;;36.39;39.18;99041.66;1719186;82;20927;-66
2021/07/17 05:24:11;;;;;;;11.75;10.75;;;;;;;36.49;39.07;99043.22;1719184;83;21478;-66
2021/07/17 05:26:37;;;;;;;11.48;10.28;;;;;;;36.56;38.58;99040.37;1719202;83;20975;-66
2021/07/17 05:29:04;;;;;;;11.15;10.08;;;;;;;36.51;38.38;99041.09;1719369;83;21040;-67
2021/07/17 05:31:32;;;;;;;10.53;9.63;;;;;;;36.47;38.54;99039.92;1719195;82;21451;-67
2021/07/17 05:33:58;;;;;;;10.88;9.93;;;;;;;36.53;38.29;99038.14;1719449;83;21082;-68
2021/07/17 05:36:25;;;;;;;13.05;9.03;;;;;;;36.42;38.26;99043.88;1719145;83;20959;-67
2021/07/17 05:38:51;;;;;;;12.45;8.83;;;;;;;36.27;37.79;99048.18;1719074;83;21010;-66
2021/07/17 05:41:17;;;;;;;10.03;9.03;;;;;;;36.08;38.20;99049.67;1719184;83;20943;-66
2021/07/17 05:43:44;;;;;;;9.53;8.70;;;;;;;36.09;37.97;99050.49;1719160;83;21095;-67
2021/07/17 05:46:10;;;;;;;10.63;8.83;;;;;;;36.02;38.31;99047.91;1717093;82;21058;-67
2021/07/17 05:48:37;;;;;;;8.85;8.03;;;;;;;35.98;37.90;99049.44;1711281;83;21476;-68
2021/07/17 05:51:04;;;;;;;8.98;8.18;;;;;;;36.01;36.33;99050.84;1711046;83;20951;-69
2021/07/17 05:53:30;;;;;;;8.60;7.87;;;;;;;36.07;36.17;99050.73;1711110;83;21032;-68
2021/07/17 05:55:58;;;;;;;9.45;8.70;;;;;;;36.12;35.96;99046.78;1711338;82;21429;-68
2021/07/17 05:58:24;;;;;;;18.10;8.70;;;;;;;36.10;35.96;99045.38;1710944;84;20924;-69
2021/07/17 06:00:51;;;;;;;23.55;11.73;;;;;;;36.06;36.32;99050.97;1711182;83;21012;-68
2021/07/17 06:03:17;;;;;;;12.05;8.28;;;;;;;35.83;37.17;99053.17;1711120;83;21415;-68
2021/07/17 06:05:43;;;;;;;10.25;8.20;;;;;;;35.68;36.11;99041.45;1711454;83;21019;-68
2021/07/17 06:08:10;;;;;;;11.57;7.97;;;;;;;35.65;36.37;99044.62;1711100;83;21047;-68
2021/07/17 06:10:36;;;;;;;7.85;7.05;;;;;;;35.66;36.46;99050.86;1711224;84;20936;-68
2021/07/17 06:13:03;;;;;;;25.92;7.97;;;;;;;35.62;35.70;99051.03;1711078;84;20987;-68
2021/07/17 06:15:30;;;;;;;8.43;7.58;;;;;;;35.52;35.94;99058.40;1711127;83;20979;-68
2021/07/17 06:17:57;;;;;;;11.33;7.83;;;;;;;35.47;36.00;99057.75;1711033;84;20956;-69
2021/07/17 06:20:23;;;;;;;8.65;7.40;;;;;;;35.35;36.26;99062.86;1711101;84;21104;-68
2021/07/17 06:22:50;;;;;;;6.90;6.30;;;;;;;35.15;36.65;99061.80;1711027;84;21011;-68
2021/07/17 06:25:16;;;;;;;7.58;6.17;;;;;;;34.98;35.74;99064.32;1711169;84;20939;-68
2021/07/17 06:27:43;;;;;;;6.90;6.35;;;;;;;34.84;35.94;99064.23;1711108;84;21023;-68
2021/07/17 06:30:11;;;;;;;12.90;7.28;;;;;;;34.69;36.21;99066.50;1711148;83;21113;-68
2021/07/17 06:32:37;;;;;;;10.25;7.62;;;;;;;34.52;36.98;99060.91;1711110;84;21799;-68
2021/07/17 06:35:05;;;;;;;12.13;8.00;;;;;;;34.39;37.92;99063.23;1711087;83;21630;-67
2021/07/17 06:37:32;;;;;;;7.67;7.03;;;;;;;34.30;38.33;99054.34;1711098;82;21039;-67
2021/07/17 06:39:58;;;;;;;10.55;7.78;;;;;;;34.25;38.29;99056.86;1711019;84;21018;-68
2021/07/17 06:42:25;;;;;;;8.73;7.53;;;;;;;34.19;38.11;99053.17;1711116;83;20979;-68
2021/07/17 06:44:51;;;;;;;11.55;7.47;;;;;;;34.12;38.33;99053.28;1711290;84;21480;-69
2021/07/17 06:47:17;;;;;;;8.90;8.10;;;;;;;33.98;39.23;99056.33;1710837;83;21677;-67
2021/07/17 06:49:44;;;;;;;8.50;7.22;;;;;;;33.82;39.44;99049.66;1711060;84;21019;-67
2021/07/17 06:52:10;;;;;;;10.35;8.15;;;;;;;33.65;39.08;99051.25;1710979;83;21110;-68
2021/07/17 06:54:39;;;;;;;9.23;8.33;;;;;;;33.45;40.03;99045.52;1711091;83;21082;-69
2021/07/17 06:57:05;;;;;;;10.03;8.08;;;;;;;33.29;39.84;99041.22;1711173;84;21399;-68
2021/07/17 06:59:31;;;;;;;10.72;7.35;;;;;;;33.12;40.48;99048.48;1710886;83;21641;-68
2021/07/17 07:01:58;;;;;;;9.18;7.75;;;;;;;33.00;39.97;99043.98;1710948;83;20964;-68
2021/07/17 07:04:24;;;;;;;12.43;8.03;;;;;;;32.92;40.17;99042.41;1711121;83;21022;-68
2021/07/17 07:06:52;;;;;;;8.38;7.67;;;;;;;32.83;40.58;99042.34;1711135;83;21542;-68
2021/07/17 07:09:19;;;;;;;10.85;7.28;;;;;;;32.78;40.38;99047.03;1711229;84;21769;-68
2021/07/17 07:11:47;;;;;;;9.15;7.35;;;;;;;32.72;40.50;99038.98;1711119;82;20936;-68
2021/07/17 07:14:13;;;;;;;7.37;6.62;;;;;;;32.66;40.44;99045.22;1711301;83;20988;-68
2021/07/17 07:16:41;;;;;;;8.13;7.40;;;;;;;32.60;40.59;99042.86;1711033;84;20991;-68
2021/07/17 07:19:07;;;;;;;7.35;6.33;;;;;;;32.55;41.10;99039.19;1711097;84;20960;-68
2021/07/17 07:21:33;;;;;;;7.50;6.90;;;;;;;32.52;41.21;99047.17;1710976;83;21415;-67
2021/07/17 07:24:00;;;;;;;17.62;8.00;;;;;;;32.43;40.81;99050.62;1711075;83;21059;-68
2021/07/17 07:26:26;;;;;;;9.68;6.55;;;;;;;32.35;41.17;99053.58;1711412;83;20952;-68
2021/07/17 07:28:56;;;;;;;18.40;7.87;;;;;;;32.32;40.98;99047.27;1710934;84;21467;-68
2021/07/17 07:31:24;;;;;;;13.25;8.45;;;;;;;32.31;41.25;99042.92;1711009;83;21515;-69
2021/07/17 07:33:52;;;;;;;6.97;6.05;;;;;;;32.32;41.29;99049.13;1711283;83;21818;-67
2021/07/17 07:36:20;;;;;;;9.53;7.20;;;;;;;32.32;41.03;99045.92;1710939;83;21043;-68
2021/07/17 07:38:47;;;;;;;9.43;7.30;;;;;;;32.33;40.71;99046.23;1711066;84;20927;-68
2021/07/17 07:41:15;;;;;;;11.43;7.25;;;;;;;32.36;40.52;99050.36;1711051;83;20995;-68
2021/07/17 07:43:41;;;;;;;8.25;6.72;;;;;;;32.39;41.27;99045.87;1710943;83;21097;-68
2021/07/17 07:46:08;;;;;;;8.75;6.60;;;;;;;32.43;41.19;99041.20;1711064;84;21127;-68
2021/07/17 07:48:36;;;;;;;9.83;6.78;;;;;;;32.49;41.31;99042.21;1719131;83;20971;-67
2021/07/17 07:51:03;;;;;;;8.08;7.10;;;;;;;32.52;40.18;99036.41;1719117;83;21002;-69
2021/07/17 07:53:30;;;;;;;7.62;7.03;;;;;;;32.53;39.71;99043.44;1719224;83;20982;-68
2021/07/17 07:55:57;;;;;;;13.10;7.17;;;;;;;32.55;39.43;99044.58;1719461;83;20990;-69
2021/07/17 07:58:23;;;;;;;7.85;6.35;;;;;;;32.56;39.01;99044.88;1719194;82;21176;-67
2021/07/17 08:00:49;;;;;;;10.50;6.33;;;;;;;32.60;39.24;99046.91;1719131;83;21022;-68
2021/07/17 08:03:16;;;;;;;8.73;6.87;;;;;;;32.68;39.40;99048.01;1719452;82;21416;-67
2021/07/17 08:05:43;;;;;;;7.83;6.50;;;;;;;32.77;39.34;99044.06;1719140;83;20982;-68
2021/07/17 08:08:09;;;;;;;11.48;6.67;;;;;;;32.86;38.88;99043.27;1719233;83;21105;-68
2021/07/17 08:10:36;;;;;;;12.10;6.70;;;;;;;32.89;38.79;99045.53;1719290;83;21957;-68
2021/07/17 08:13:04;;;;;;;7.72;6.62;;;;;;;32.92;38.94;99042.92;1719098;82;21101;-69
2021/07/17 08:15:32;;;;;;;12.90;6.90;;;;;;;32.96;38.42;99042.28;1719244;83;20987;-67
2021/07/17 08:17:59;;;;;;;11.95;7.22;;;;;;;33.00;38.57;99039.95;1719407;83;21015;-68
2021/07/17 08:20:26;;;;;;;7.22;6.37;;;;;;;33.07;38.69;99042.08;1719252;82;20939;-68
2021/07/17 08:22:52;;;;;;;12.78;7.15;;;;;;;33.06;38.38;99038.56;1719118;83;23250;-68
2021/07/17 08:25:18;;;;;;;7.55;6.95;;;;;;;33.07;38.14;99036.17;1718998;83;21443;-68
2021/07/17 08:27:45;;;;;;;8.23;6.65;;;;;;;33.07;38.09;99031.30;1719199;83;20995;-68
2021/07/17 08:30:13;;;;;;;7.67;6.58;;;;;;;33.09;38.49;99034.61;1719050;83;20987;-68
2021/07/17 08:32:39;;;;;;;16.65;7.90;;;;;;;33.11;38.55;99033.35;1719367;83;21117;-68
2021/07/17 08:35:08;;;;;;;7.62;6.47;;;;;;;33.11;38.50;99032.00;1719180;83;21169;-67
2021/07/17 08:37:34;;;;;;;8.00;6.47;;;;;;;33.11;38.53;99029.83;1719326;83;21060;-68
2021/07/17 08:40:06;;;;;;;10.53;6.65;;;;;;;33.13;38.70;99032.61;1719083;82;20975;-66
2021/07/17 08:42:36;;;;;;;;;;;;;;;33.16;38.88;99032.70;1722145;83;20947;-66
2021/07/17 08:45:05;;;;;;;8.38;7.33;;;;;;;33.28;38.62;99035.52;1719607;83;20424;-68
2021/07/17 08:47:36;;;;;;;7.28;6.62;;;;;;;33.35;38.02;99033.09;1718988;82;23336;-67
2021/07/17 08:50:00;;;;;;;6.80;6.30;;;;;;;33.39;37.93;99038.31;1718913;83;21514;-68
2021/07/17 08:52:28;;;;;;;10.75;7.50;;;;;;;33.40;37.59;99031.88;1719040;82;21431;-67
2021/07/17 08:55:02;;;;;;;9.08;6.97;;;;;;;33.39;38.04;99032.92;1719317;83;20964;-68
2021/07/17 08:57:23;;;;;;;8.55;7.83;;;;;;;33.36;38.08;99028.52;1719028;83;20983;-67
2021/07/17 08:59:51;;;;;;;7.25;6.60;;;;;;;33.36;38.62;99031.22;1719006;83;21125;-67
2021/07/17 09:02:17;;;;;;;8.18;7.40;;;;;;;33.44;38.16;99037.66;1719264;83;21436;-68
2021/07/17 09:04:44;;;;;;;6.65;6.15;;;;;;;33.50;37.96;99036.26;1719219;82;20994;-66
2021/07/17 09:07:10;;;;;;;7.50;6.92;;;;;;;33.62;37.67;99039.56;1719269;83;21144;-67
2021/07/17 09:09:38;;;;;;;7.62;6.58;;;;;;;33.66;37.78;99033.50;1719307;83;20944;-68
2021/07/17 09:12:24;;;;;;;9.40;6.83;;;;;;;33.63;37.20;99032.59;1719486;83;21840;-67
2021/07/17 09:14:52;;;;;;;7.12;6.42;;;;;;;33.57;37.17;99034.03;1719010;83;21482;-67
2021/07/17 09:17:25;;;;;;;8.25;7.10;;;;;;;33.48;37.65;99037.52;1719241;83;21082;-68
2021/07/17 09:19:57;;;;;;;7.85;6.33;;;;;;;33.43;37.18;99032.78;1719151;82;21508;-68
2021/07/17 09:22:36;;;;;;;6.80;6.20;;;;;;;33.41;36.86;99036.22;1719215;83;20944;-67
2021/07/17 09:25:11;;;;;;;8.10;6.30;;;;;;;33.41;37.47;99033.53;1719290;83;21150;-68
2021/07/17 09:27:38;;;;;;;8.05;6.17;;;;;;;33.50;37.61;99027.34;1718698;83;20955;-68
2021/07/17 09:30:11;;;;;;;7.03;6.30;;;;;;;33.64;37.13;99031.55;1719196;83;20988;-67
2021/07/17 09:32:38;;;;;;;8.13;5.87;;;;;;;33.72;36.42;99028.58;1700612;83;21080;-68
2021/07/17 09:35:14;;;;;;;9.75;7.10;;;;;;;33.74;36.13;99029.70;1719432;82;20984;-68
2021/07/17 09:37:40;;;;;;;9.25;6.83;;;;;;;33.80;37.33;99028.82;1719379;83;21736;-68
2021/07/17 09:40:10;;;;;;;7.37;6.67;;;;;;;33.70;37.82;99026.63;1719227;83;20948;-67
2021/07/17 09:42:43;;;;;;;8.35;7.60;;;;;;;33.61;37.42;99027.95;1719281;83;20967;-68
2021/07/17 09:45:12;;;;;;;7.03;6.50;;;;;;;33.52;37.49;99023.91;1719369;83;21038;-67
2021/07/17 09:47:38;;;;;;;8.78;7.03;;;;;;;33.38;37.24;99023.19;1716690;83;20966;-68
2021/07/17 09:50:19;;;;;;;7.65;7.05;;;;;;;33.33;37.29;99016.30;1711114;84;21135;-67
2021/07/17 09:52:46;;;;;;;7.30;6.60;;;;;;;33.33;37.21;99016.30;1710960;83;20948;-67
2021/07/17 09:55:16;;;;;;;7.83;7.08;;;;;;;33.41;37.56;99013.83;1711114;83;20981;-67
2021/07/17 09:57:43;;;;;;;8.83;7.42;;;;;;;33.53;37.77;99012.08;1711139;83;21495;-68
2021/07/17 10:00:15;;;;;;;7.72;7.00;;;;;;;33.61;37.64;99006.89;1711093;84;21051;-67
2021/07/17 10:02:41;;;;;;;10.63;6.35;;;;;;;33.66;38.23;99013.80;1711496;83;21104;-69
2021/07/17 10:05:15;;;;;;;6.97;6.47;;;;;;;33.71;37.18;99017.48;1711077;84;20988;-68
2021/07/17 10:07:41;;;;;;;8.58;6.70;;;;;;;33.80;36.52;99005.37;1711213;83;21023;-68
2021/07/17 10:10:10;;;;;;;6.53;5.92;;;;;;;33.91;35.83;99009.73;1711098;83;21510;-67
2021/07/17 10:12:42;;;;;;;7.15;6.45;;;;;;;34.03;35.83;99011.44;1711014;82;20991;-67
2021/07/17 10:15:15;;;;;;;10.93;6.55;;;;;;;34.11;36.14;99007.09;1711361;83;21185;-67
2021/07/17 10:17:44;;;;;;;9.15;5.75;;;;;;;34.12;35.48;99004.70;1711091;83;21003;-67
2021/07/17 10:20:16;;;;;;;9.63;6.67;;;;;;;34.15;34.97;99001.55;1711054;83;21007;-68
2021/07/17 10:22:44;;;;;;;8.00;7.28;;;;;;;34.27;35.60;99002.12;1711057;84;21503;-68
2021/07/17 10:25:12;;;;;;;8.40;6.75;;;;;;;34.27;35.52;98995.37;1711025;84;21511;-67
2021/07/17 10:27:39;;;;;;;6.95;6.35;;;;;;;34.27;35.53;98994.84;1711042;83;21151;-67
2021/07/17 10:30:08;;;;;;;9.85;6.50;;;;;;;34.25;36.03;98991.55;1711042;84;21086;-68
2021/07/17 10:32:36;;;;;;;7.10;6.42;;;;;;;34.29;35.55;98993.30;1711018;84;20951;-67
2021/07/17 10:35:04;;;;;;;6.85;6.35;;;;;;;34.29;35.59;98986.03;1711205;83;21400;-67
2021/07/17 10:37:34;;;;;;;7.37;6.83;;;;;;;34.33;35.82;98985.05;1711048;83;21043;-67
2021/07/17 10:40:12;;;;;;;8.75;6.85;;;;;;;34.35;35.93;98981.08;1711128;83;21914;-67
2021/07/17 10:42:46;;;;;;;7.62;6.90;;;;;;;34.33;35.89;98981.83;1711225;83;21383;-68
2021/07/17 10:45:36;;;;;;;9.55;7.08;;;;;;;34.21;36.29;98984.42;1710950;82;21531;-68
2021/07/17 10:48:06;;;;;;;7.85;7.12;;;;;;;34.04;36.15;98984.75;1711054;82;21002;-68
2021/07/17 10:50:33;;;;;;;7.55;6.55;;;;;;;33.88;36.70;98978.63;1710032;83;21543;-68
2021/07/17 10:53:00;;;;;;;7.12;6.42;;;;;;;33.90;36.06;98980.58;1711115;82;21062;-68
2021/07/17 10:55:38;;;;;;;10.38;7.17;;;;;;;33.99;35.30;98973.81;1710914;83;20956;-68
2021/07/17 10:58:16;;;;;;;10.08;6.87;;;;;;;34.05;35.13;98981.00;1711229;83;20952;-67
2021/07/17 11:00:56;;;;;;;7.33;6.53;;;;;;;34.13;35.21;98973.96;1711209;84;21546;-67
2021/07/17 11:03:30;;;;;;;8.10;6.58;;;;;;;34.19;34.63;98968.16;1711130;84;20979;-67
2021/07/17 11:05:56;;;;;;;7.03;6.42;;;;;;;34.26;34.52;98963.50;1711359;83;21775;-68
2021/07/17 11:08:39;;;;;;;7.70;6.90;;;;;;;34.37;34.67;98960.60;1710943;83;20960;-68
2021/07/17 11:11:33;;;;;;;8.30;6.20;;;;;;;34.48;35.67;98955.75;1710993;82;20999;-67
2021/07/17 11:14:16;;;;;;;7.17;6.47;;;;;;;34.44;35.59;98953.20;1710982;83;20987;-68
2021/07/17 11:16:48;;;;;;;6.87;6.10;;;;;;;34.40;35.55;98957.41;1711113;82;20920;-67
2021/07/17 11:19:19;;;;;;;6.72;6.12;;;;;;;34.32;34.39;98957.23;1711024;82;21116;-68
2021/07/17 11:21:46;;;;;;;6.72;5.97;;;;;;;34.28;34.21;98951.13;1710985;83;21621;-67
2021/07/17 11:24:12;;;;;;;8.80;5.92;;;;;;;34.32;34.77;98945.61;1711107;84;21152;-68
2021/07/17 11:26:39;;;;;;;6.87;6.28;;;;;;;34.38;34.76;98945.48;1711303;83;20999;-66
2021/07/17 11:29:13;;;;;;;7.22;6.62;;;;;;;34.43;34.77;98938.06;1711098;84;21415;-68